Time;durP1;ratioP1;P1;durP2;ratioP2;P2;SDS_P1;SDS_P2;PMS_P1;PMS_P2;Temp;Humidity;BMP_temperature;BMP_pressure;BME280_temperature;BME280_humidity;BME280_pressure;Samples;Min_cycle;Max_cycle;Signal;HPM_P1;HPM_P2
2021/07/28 00:01:55;;;;;;;0.40;0.00;;;;;;;23.42;64.50;100118.88;125983;1094;103138;-71
2021/07/28 00:04:23;;;;;;;0.40;0.00;;;;;;;23.37;64.08;100115.69;125942;1095;103041;-71
2021/07/28 00:06:50;;;;;;;0.40;0.00;;;;;;;23.27;64.16;100114.73;125866;1095;114116;-71
2021/07/28 00:09:17;;;;;;;0.40;0.00;;;;;;;23.24;64.03;100112.28;126079;1095;103028;-71
2021/07/28 00:11:47;;;;;;;0.40;0.00;;;;;;;23.18;64.32;100114.52;125922;1095;114135;-72
2021/07/28 00:14:14;;;;;;;0.40;0.00;;;;;;;23.15;63.91;100109.35;125956;1096;103122;-71
2021/07/28 00:16:42;;;;;;;0.40;0.00;;;;;;;23.11;64.07;100101.54;125837;1095;114175;-71
2021/07/28 00:19:18;;;;;;;0.40;0.00;;;;;;;23.06;64.64;100101.94;126012;1094;102897;-71
2021/07/28 00:24:33;;;;;;;0.40;0.00;;;;;;;23.03;64.29;100105.77;125881;1095;113503;-71
2021/07/28 00:27:01;;;;;;;0.40;0.00;;;;;;;23.06;64.68;100104.66;125990;1095;102916;-72
2021/07/28 00:29:29;;;;;;;0.40;0.00;;;;;;;23.01;64.52;100106.89;125959;1096;114366;-73
2021/07/28 00:31:57;;;;;;;0.40;0.00;;;;;;;22.93;64.69;100107.52;125946;1096;103065;-73
2021/07/28 00:34:24;;;;;;;0.40;0.00;;;;;;;22.94;64.44;100109.25;125996;1096;102936;-73
2021/07/28 00:36:51;;;;;;;0.40;0.00;;;;;;;22.94;64.74;100098.39;125903;1096;114053;-73
2021/07/28 00:39:18;;;;;;;0.40;0.00;;;;;;;22.90;64.41;100109.63;126061;1096;104973;-70
2021/07/28 00:41:46;;;;;;;0.40;0.00;;;;;;;22.80;64.94;100104.95;125876;1095;114278;-71
2021/07/28 00:44:13;;;;;;;0.40;0.00;;;;;;;22.78;64.91;100101.52;126040;1095;102939;-71
2021/07/28 00:46:40;;;;;;;0.40;0.00;;;;;;;22.83;64.75;100106.55;125862;1094;114270;-71
2021/07/28 00:49:08;;;;;;;0.40;0.00;;;;;;;22.87;64.80;100087.18;126042;1095;103109;-72
2021/07/28 00:51:35;;;;;;;0.40;0.00;;;;;;;22.82;64.27;100094.84;126055;1095;103135;-71
2021/07/28 00:54:02;;;;;;;0.40;0.00;;;;;;;22.71;64.28;100105.70;125975;1094;114139;-71
2021/07/28 00:56:30;;;;;;;0.40;0.00;;;;;;;22.64;65.22;100105.34;126039;1096;102924;-71
2021/07/28 00:58:58;;;;;;;0.40;0.00;;;;;;;22.63;65.26;100091.91;126021;1096;114323;-70
2021/07/28 01:01:26;;;;;;;0.40;0.00;;;;;;;22.67;65.25;100098.81;126040;1095;102911;-71
2021/07/28 01:03:54;;;;;;;0.40;0.00;;;;;;;22.69;65.13;100097.70;126028;1096;103329;-72
2021/07/28 01:06:21;;;;;;;0.40;0.00;;;;;;;22.60;65.28;100106.59;125955;1096;114132;-72
2021/07/28 01:08:48;;;;;;;0.40;0.00;;;;;;;22.59;65.54;100101.30;126094;1096;103009;-73
2021/07/28 01:11:24;;;;;;;0.40;0.00;;;;;;;22.56;65.37;100104.27;125935;1096;114331;-73
2021/07/28 01:13:51;;;;;;;0.40;0.00;;;;;;;22.52;65.32;100104.50;126049;1095;103179;-74
2021/07/28 01:16:21;;;;;;;0.40;0.00;;;;;;;22.48;65.42;100103.02;126051;1094;103041;-73
2021/07/28 01:18:50;;;;;;;0.40;0.00;;;;;;;22.44;65.46;100109.69;126006;1096;113983;-73
2021/07/28 01:21:18;;;;;;;0.40;0.00;;;;;;;22.43;65.19;100110.70;127126;1096;102901;-73
2021/07/28 01:23:46;;;;;;;0.40;0.00;;;;;;;22.43;65.85;100104.39;125989;1094;114119;-73
2021/07/28 01:26:14;;;;;;;0.40;0.00;;;;;;;22.44;65.54;100111.55;126016;1095;103003;-73
2021/07/28 01:28:41;;;;;;;0.40;0.00;;;;;;;22.40;65.37;100121.78;125959;1095;114288;-73
2021/07/28 01:31:11;;;;;;;0.40;0.00;;;;;;;22.28;65.31;100122.74;126039;1093;102971;-73
2021/07/28 01:33:43;;;;;;;0.40;0.00;;;;;;;22.25;65.78;100125.71;125993;1095;103051;-69
2021/07/28 01:36:16;;;;;;;0.40;0.00;;;;;;;22.27;65.98;100131.86;125895;1096;114528;-71
2021/07/28 01:38:43;;;;;;;0.40;0.00;;;;;;;22.25;65.79;100125.71;126064;1096;103183;-71
2021/07/28 01:41:11;;;;;;;0.40;0.00;;;;;;;22.27;65.69;100129.14;125898;1096;113689;-72
2021/07/28 01:43:39;;;;;;;0.40;0.00;;;;;;;22.21;65.43;100131.36;126030;1096;103065;-72
2021/07/28 01:46:06;;;;;;;0.40;0.00;;;;;;;22.23;65.90;100123.09;125975;1095;103055;-72
2021/07/28 01:48:34;;;;;;;0.40;0.00;;;;;;;22.24;65.79;100118.55;125981;1095;114031;-72
2021/07/28 01:51:02;;;;;;;0.40;0.00;;;;;;;22.24;65.64;100122.11;125936;1096;102967;-70
2021/07/28 01:53:29;;;;;;;0.40;0.00;;;;;;;22.24;65.90;100118.55;125913;1095;114126;-70
2021/07/28 01:55:57;;;;;;;0.40;0.00;;;;;;;22.21;66.06;100125.94;125964;1095;102888;-70
2021/07/28 01:58:25;;;;;;;0.40;0.00;;;;;;;22.19;65.87;100121.61;126015;1095;103333;-70
2021/07/28 02:00:52;;;;;;;0.40;0.00;;;;;;;22.17;66.14;100121.74;126370;1096;113954;-70
2021/07/28 02:03:19;;;;;;;0.40;0.00;;;;;;;22.15;66.10;100118.30;126006;1094;102930;-70
2021/07/28 02:05:47;;;;;;;0.40;0.00;;;;;;;22.15;65.93;100109.28;125879;1095;114257;-70
2021/07/28 02:08:16;;;;;;;0.40;0.00;;;;;;;22.14;66.31;100112.98;126060;1095;102972;-70
2021/07/28 02:10:49;;;;;;;0.40;0.00;;;;;;;22.13;65.82;100111.27;125937;1095;114338;-71
2021/07/28 02:13:18;;;;;;;0.40;0.00;;;;;;;22.15;65.58;100115.59;126039;1095;103186;-71
2021/07/28 02:15:46;;;;;;;0.40;0.00;;;;;;;22.17;65.82;100108.18;125968;1096;102977;-71
2021/07/28 02:18:14;;;;;;;0.40;0.00;;;;;;;22.21;65.73;100108.81;126112;1095;114133;-72
2021/07/28 02:20:41;;;;;;;0.40;0.00;;;;;;;22.18;65.59;100109.06;125986;1095;106331;-72
2021/07/28 02:23:08;;;;;;;0.40;0.00;;;;;;;22.08;65.41;100113.48;125991;1096;114315;-71
2021/07/28 02:25:36;;;;;;;0.40;0.00;;;;;;;21.95;65.78;100119.00;126020;1095;102917;-72
2021/07/28 02:28:03;;;;;;;0.40;0.00;;;;;;;21.90;65.73;100118.50;126061;1096;105271;-72
2021/07/28 02:30:30;;;;;;;0.40;0.00;;;;;;;21.91;66.21;100110.23;125939;1095;114133;-72
2021/07/28 02:32:58;;;;;;;0.40;0.00;;;;;;;21.92;66.60;100113.83;126015;1096;103233;-72
2021/07/28 02:35:25;;;;;;;0.40;0.00;;;;;;;21.94;66.43;100104.59;125913;1094;114127;-72
2021/07/28 02:37:52;;;;;;;0.40;0.00;;;;;;;21.92;66.56;100095.70;126090;1096;102909;-72
2021/07/28 02:40:20;;;;;;;0.40;0.00;;;;;;;21.90;66.51;100102.23;126041;1095;103023;-72
2021/07/28 02:42:48;;;;;;;0.40;0.00;;;;;;;21.90;65.87;100107.66;125915;1096;114127;-72
2021/07/28 02:45:15;;;;;;;0.40;0.00;;;;;;;21.90;66.39;100110.36;127598;1096;101023;-72
2021/07/28 02:47:43;;;;;;;0.40;0.00;;;;;;;21.84;66.09;100106.30;127168;1096;114589;-73
2021/07/28 02:50:11;;;;;;;0.40;0.00;;;;;;;21.84;66.29;100100.88;126026;1093;103509;-73
2021/07/28 02:52:38;;;;;;;0.40;0.00;;;;;;;21.87;66.26;100100.63;125973;1096;114283;-72
2021/07/28 02:55:06;;;;;;;0.40;0.00;;;;;;;21.86;66.18;100101.63;126067;1096;102914;-72
2021/07/28 02:57:35;;;;;;;0.40;0.00;;;;;;;21.88;66.39;100100.53;127660;1094;100991;-72
2021/07/28 03:00:07;;;;;;;0.40;0.00;;;;;;;21.97;66.39;100106.20;126616;1096;114073;-73
2021/07/28 03:02:35;;;;;;;0.40;0.00;;;;;;;21.91;66.30;100093.13;126018;1096;103070;-72
2021/07/28 03:05:03;;;;;;;0.40;0.00;;;;;;;21.93;66.27;100100.15;125912;1095;114355;-72
2021/07/28 03:07:33;;;;;;;0.40;0.00;;;;;;;21.98;66.00;100097.06;126041;1095;102917;-72
2021/07/28 03:10:02;;;;;;;0.40;0.00;;;;;;;21.96;65.89;100096.33;126026;1096;102974;-72
2021/07/28 03:12:30;;;;;;;0.40;0.00;;;;;;;21.97;65.92;100108.91;125872;1096;114119;-72
2021/07/28 03:14:57;;;;;;;0.40;0.00;;;;;;;21.90;66.30;100110.36;126022;1094;102903;-70
2021/07/28 03:17:24;;;;;;;0.40;0.00;;;;;;;21.91;66.58;100112.09;125950;1096;114356;-71
2021/07/28 03:19:52;;;;;;;0.40;0.00;;;;;;;21.94;66.62;100120.86;126020;1096;102972;-71
2021/07/28 03:22:20;;;;;;;0.40;0.00;;;;;;;22.00;65.73;100119.51;125998;1095;103040;-71
2021/07/28 03:24:47;;;;;;;0.40;0.00;;;;;;;22.05;65.89;100115.44;125959;1095;113361;-71
2021/07/28 03:27:14;;;;;;;0.40;0.00;;;;;;;21.99;65.95;100117.77;126021;1096;103058;-71
2021/07/28 03:29:41;;;;;;;0.40;0.00;;;;;;;22.01;66.44;100115.82;125903;1095;114213;-71
2021/07/28 03:32:09;;;;;;;0.40;0.00;;;;;;;22.07;66.07;100115.31;125981;1096;102898;-71
2021/07/28 03:34:37;;;;;;;0.40;0.00;;;;;;;22.13;65.95;100116.70;125930;1095;114306;-70
2021/07/28 03:37:05;;;;;;;0.40;0.00;;;;;;;22.18;66.31;100120.77;126070;1096;102933;-71
2021/07/28 03:39:32;;;;;;;0.40;0.00;;;;;;;22.09;66.47;100117.93;126047;1094;102910;-71
2021/07/28 03:41:59;;;;;;;0.40;0.00;;;;;;;22.10;66.90;100114.20;125847;1095;114164;-72
2021/07/28 03:44:32;;;;;;;0.40;0.00;;;;;;;22.17;66.19;100116.31;125990;1095;103034;-72
2021/07/28 03:46:59;;;;;;;0.40;0.00;;;;;;;22.20;66.62;100117.92;126202;1094;114752;-71
2021/07/28 03:49:26;;;;;;;0.40;0.00;;;;;;;22.19;66.02;100119.78;125957;1096;103050;-72
2021/07/28 03:51:53;;;;;;;0.40;0.00;;;;;;;22.27;65.59;100126.44;125943;1095;102885;-71
2021/07/28 03:54:20;;;;;;;0.40;0.00;;;;;;;22.33;65.48;100123.24;125931;1096;114188;-71
2021/07/28 03:56:48;;;;;;;0.40;0.00;;;;;;;22.41;65.51;100118.09;125964;1094;103009;-71
2021/07/28 03:59:15;;;;;;;0.40;0.00;;;;;;;22.44;65.24;100117.83;125894;1095;114344;-71
2021/07/28 04:01:44;;;;;;;0.40;0.00;;;;;;;22.46;65.25;100121.30;125963;1095;102901;-71
2021/07/28 04:04:11;;;;;;;0.40;0.00;;;;;;;22.51;65.25;100112.77;126017;1095;102963;-72
2021/07/28 04:06:38;;;;;;;0.40;0.00;;;;;;;22.53;66.04;100114.38;125881;1096;114171;-72
2021/07/28 04:09:06;;;;;;;0.40;0.00;;;;;;;22.55;65.66;100111.53;125983;1095;102980;-72
2021/07/28 04:11:33;;;;;;;0.40;0.00;;;;;;;22.62;66.14;100112.77;125774;1095;114157;-70
2021/07/28 04:14:00;;;;;;;0.40;0.00;;;;;;;22.62;66.39;100101.03;125980;1094;102895;-70
2021/07/28 04:16:27;;;;;;;0.40;0.00;;;;;;;22.60;65.61;100113.88;126005;1095;102981;-70
2021/07/28 04:18:58;;;;;;;0.40;0.00;;;;;;;22.62;65.38;100117.31;126267;1095;113931;-70
2021/07/28 04:21:25;;;;;;;0.40;0.00;;;;;;;22.64;64.26;100113.49;126014;1096;102881;-70
2021/07/28 04:23:52;;;;;;;0.40;0.00;;;;;;;22.73;64.57;100116.47;126019;1096;114148;-69
2021/07/28 04:26:19;;;;;;;0.40;0.00;;;;;;;22.84;64.79;100117.28;126093;1096;102900;-69
2021/07/28 04:28:47;;;;;;;0.40;0.00;;;;;;;22.92;64.16;100121.23;125972;1096;114421;-69
2021/07/28 04:31:14;;;;;;;0.40;0.00;;;;;;;22.98;64.21;100105.30;126053;1093;102958;-69
2021/07/28 04:33:41;;;;;;;0.40;0.00;;;;;;;23.03;62.86;100107.61;126121;1095;103109;-70
2021/07/28 04:36:09;;;;;;;0.40;0.00;;;;;;;23.02;62.64;100114.05;126033;1096;114170;-70
2021/07/28 04:38:37;;;;;;;0.40;0.00;;;;;;;23.08;62.99;100108.09;126121;1093;102879;-70
2021/07/28 04:41:06;;;;;;;0.40;0.00;;;;;;;23.12;62.02;100109.55;125984;1095;114491;-70
2021/07/28 04:43:34;;;;;;;0.40;0.00;;;;;;;23.14;61.87;100107.63;126103;1096;103425;-71
2021/07/28 04:46:03;;;;;;;0.40;0.00;;;;;;;23.30;62.49;100104.47;126126;1094;102912;-70
2021/07/28 04:48:30;;;;;;;0.40;0.00;;;;;;;23.37;62.20;100115.69;125998;1095;114306;-70
2021/07/28 04:50:59;;;;;;;0.40;0.00;;;;;;;23.42;62.67;100108.00;126107;1095;102922;-70
2021/07/28 04:53:30;;;;;;;0.40;0.00;;;;;;;23.50;62.23;100105.48;125924;1092;114091;-72
2021/07/28 04:55:58;;;;;;;0.40;0.00;;;;;;;23.55;62.50;100102.36;126489;1096;103015;-71
2021/07/28 04:58:25;;;;;;;0.40;0.00;;;;;;;23.63;62.40;100105.31;127610;1094;100987;-71
2021/07/28 05:00:53;;;;;;;0.40;0.00;;;;;;;23.68;62.95;100099.45;126417;1093;114033;-71
2021/07/28 05:03:22;;;;;;;0.40;0.00;;;;;;;23.79;62.09;100096.69;127235;1095;102987;-71
2021/07/28 05:05:50;;;;;;;0.40;0.00;;;;;;;23.91;61.58;100099.34;125971;1096;114257;-70
2021/07/28 05:08:17;;;;;;;0.40;0.00;;;;;;;24.02;61.44;100094.69;126027;1096;103065;-70
2021/07/28 05:10:44;;;;;;;0.40;0.00;;;;;;;24.12;60.38;100097.45;125897;1095;114354;-69
2021/07/28 05:13:15;;;;;;;0.40;0.00;;;;;;;24.19;59.78;100100.49;126037;1096;103035;-70
2021/07/28 05:15:43;;;;;;;0.40;0.00;;;;;;;24.24;59.47;100094.66;126030;1095;102891;-70
2021/07/28 05:18:10;;;;;;;0.40;0.00;;;;;;;24.32;59.40;100094.83;125928;1095;115026;-71
2021/07/28 05:20:37;;;;;;;0.40;0.00;;;;;;;24.43;60.17;100091.14;125945;1095;102996;-70
2021/07/28 05:23:05;;;;;;;0.40;0.00;;;;;;;24.47;59.24;100084.42;125895;1095;114459;-70
2021/07/28 05:25:32;;;;;;;0.40;0.00;;;;;;;24.53;59.31;100082.00;125940;1094;102889;-71
2021/07/28 05:27:59;;;;;;;0.40;0.00;;;;;;;24.61;58.46;100083.19;125978;1096;102904;-71
2021/07/28 05:30:30;;;;;;;0.40;0.00;;;;;;;24.65;58.48;100081.94;125841;1093;114214;-71
2021/07/28 05:32:57;;;;;;;0.40;0.00;;;;;;;24.69;59.86;100077.94;125992;1093;102903;-71
2021/07/28 05:35:24;;;;;;;0.40;0.00;;;;;;;24.76;58.33;100080.96;125873;1096;113652;-71
2021/07/28 05:37:59;;;;;;;0.40;0.00;;;;;;;24.86;57.99;100076.41;125990;1094;103023;-72
2021/07/28 05:40:26;;;;;;;0.40;0.00;;;;;;;24.94;58.04;100081.12;125974;1096;102906;-71
2021/07/28 05:42:53;;;;;;;0.40;0.00;;;;;;;25.01;56.89;100079.56;125859;1096;114125;-70
2021/07/28 05:45:21;;;;;;;0.40;0.00;;;;;;;25.05;58.79;100083.73;126038;1095;102904;-70
2021/07/28 05:47:48;;;;;;;0.40;0.00;;;;;;;25.18;57.65;100078.86;125943;1096;114271;-70
2021/07/28 05:50:15;;;;;;;0.40;0.00;;;;;;;25.34;57.91;100089.22;125953;1096;103080;-70
2021/07/28 05:52:43;;;;;;;0.40;0.00;;;;;;;25.42;57.48;100083.05;125949;1095;114290;-70
2021/07/28 05:55:11;;;;;;;0.40;0.00;;;;;;;25.52;56.82;100086.64;126008;1096;102887;-71
2021/07/28 05:57:39;;;;;;;0.40;0.00;;;;;;;25.61;56.18;100089.49;126745;1095;102928;-71
2021/07/28 06:00:07;;;;;;;0.40;0.00;;;;;;;25.60;54.42;100085.03;125854;1096;114254;-71
2021/07/28 06:02:34;;;;;;;0.40;0.00;;;;;;;25.69;53.87;100087.73;126065;1095;103010;-71
2021/07/28 06:05:02;;;;;;;0.40;0.00;;;;;;;25.69;55.24;100079.56;125950;1095;114345;-71
2021/07/28 06:07:29;;;;;;;0.40;0.00;;;;;;;25.75;53.70;100082.71;126000;1095;102978;-71
2021/07/28 06:09:57;;;;;;;0.40;0.00;;;;;;;25.81;53.17;100084.86;125967;1095;102875;-71
2021/07/28 06:12:24;;;;;;;0.40;0.00;;;;;;;25.86;52.97;100082.56;125913;1095;114184;-71
2021/07/28 06:14:51;;;;;;;0.40;0.00;;;;;;;25.98;53.67;100085.98;125953;1094;104979;-71
2021/07/28 06:17:19;;;;;;;0.40;0.00;;;;;;;26.06;53.84;100079.78;125690;1096;114347;-72
2021/07/28 06:19:46;;;;;;;0.40;0.00;;;;;;;26.12;54.16;100082.77;125908;1096;102953;-72
2021/07/28 06:22:13;;;;;;;0.40;0.00;;;;;;;26.18;51.67;100084.91;125986;1096;103614;-71
2021/07/28 06:24:40;;;;;;;0.40;0.00;;;;;;;26.24;50.74;100077.14;125887;1094;114112;-71
2021/07/28 06:27:08;;;;;;;0.40;0.00;;;;;;;26.32;52.13;100078.09;125975;1095;103002;-72
2021/07/28 06:29:35;;;;;;;0.40;0.00;;;;;;;26.41;50.64;100083.69;125834;1094;114285;-72
2021/07/28 06:32:20;;;;;;;0.40;0.00;;;;;;;26.51;52.38;100079.89;125994;1096;103138;-73
2021/07/28 06:34:47;;;;;;;0.40;0.00;;;;;;;26.63;53.70;100085.13;125839;1095;114303;-73
2021/07/28 06:37:14;;;;;;;0.40;0.00;;;;;;;26.78;52.18;100083.64;126040;1095;102897;-72
2021/07/28 06:39:41;;;;;;;0.40;0.00;;;;;;;26.88;51.15;100082.73;125927;1095;102994;-72
2021/07/28 06:42:09;;;;;;;0.40;0.00;;;;;;;27.02;51.99;100082.20;125905;1096;114350;-72
2021/07/28 06:44:36;;;;;;;0.40;0.00;;;;;;;27.13;50.10;100076.48;125911;1093;102918;-72
2021/07/28 06:47:03;;;;;;;0.40;0.00;;;;;;;27.29;51.41;100083.13;125867;1095;114237;-72
2021/07/28 06:49:30;;;;;;;0.40;0.00;;;;;;;27.46;50.36;100070.50;125892;1094;102913;-72
2021/07/28 06:51:58;;;;;;;0.40;0.00;;;;;;;27.61;47.81;100074.36;125808;1095;103003;-72
2021/07/28 06:54:25;;;;;;;0.40;0.00;;;;;;;27.80;49.19;100070.56;125823;1094;114083;-72
2021/07/28 06:56:52;;;;;;;0.40;0.00;;;;;;;27.93;47.11;100077.50;126000;1096;102900;-72
2021/07/28 06:59:19;;;;;;;0.40;0.00;;;;;;;28.00;48.28;100082.18;125782;1096;114503;-72
2021/07/28 07:01:46;;;;;;;0.40;0.00;;;;;;;27.98;45.96;100086.09;125822;1095;102925;-73
2021/07/28 07:04:14;;;;;;;0.40;0.00;;;;;;;27.97;46.24;100087.11;125847;1095;102922;-70
2021/07/28 07:06:41;;;;;;;0.40;0.00;;;;;;;27.98;46.03;100081.47;125882;1095;114159;-71
2021/07/28 07:09:08;;;;;;;0.40;0.00;;;;;;;27.99;44.97;100074.98;125860;1095;102980;-71
2021/07/28 07:11:35;;;;;;;0.40;0.00;;;;;;;28.01;45.44;100070.22;125836;1096;113611;-71
2021/07/28 07:14:02;;;;;;;0.40;0.00;;;;;;;28.07;45.81;100065.12;125889;1094;103060;-72
2021/07/28 07:16:30;;;;;;;0.40;0.00;;;;;;;28.17;46.33;100068.60;125925;1095;102925;-71
2021/07/28 07:18:57;;;;;;;0.40;0.00;;;;;;;28.24;46.93;100066.06;125731;1095;114054;-71
2021/07/28 07:21:24;;;;;;;0.40;0.00;;;;;;;28.18;45.86;100065.70;126051;1096;103039;-71
2021/07/28 07:23:51;;;;;;;0.40;0.00;;;;;;;28.23;47.24;100067.08;125803;1094;114506;-72
2021/07/28 07:26:18;;;;;;;0.40;0.00;;;;;;;28.14;46.26;100066.20;125942;1096;102917;-72
2021/07/28 07:28:45;;;;;;;0.40;0.00;;;;;;;28.15;48.91;100067.89;125860;1096;114246;-71
2021/07/28 07:31:13;;;;;;;0.40;0.00;;;;;;;28.08;47.98;100064.10;126004;1095;103022;-72
2021/07/28 07:33:41;;;;;;;0.40;0.00;;;;;;;28.01;48.42;100061.16;126007;1095;102917;-72
2021/07/28 07:36:14;;;;;;;0.40;0.00;;;;;;;27.96;47.30;100052.53;127539;1096;114289;-72
2021/07/28 07:38:42;;;;;;;0.40;0.00;;;;;;;27.90;47.96;100056.79;126400;1096;103026;-72
2021/07/28 07:41:09;;;;;;;0.40;0.00;;;;;;;27.94;49.68;100051.86;125996;1095;114288;-72
2021/07/28 07:43:38;;;;;;;0.40;0.00;;;;;;;27.92;48.02;100053.89;126014;1095;103114;-72
2021/07/28 07:46:05;;;;;;;0.40;0.00;;;;;;;27.90;49.11;100044.96;126053;1095;102873;-72
2021/07/28 07:48:34;;;;;;;0.40;0.00;;;;;;;27.92;48.72;100046.52;125895;1096;114391;-71
2021/07/28 07:51:01;;;;;;;0.40;0.00;;;;;;;28.01;49.49;100047.47;126361;1095;103082;-71
2021/07/28 07:53:29;;;;;;;0.40;0.00;;;;;;;28.04;49.23;100047.13;125907;1096;114138;-71
2021/07/28 07:55:58;;;;;;;0.40;0.00;;;;;;;28.08;49.70;100037.57;126067;1095;102956;-72
2021/07/28 07:58:26;;;;;;;0.40;0.00;;;;;;;28.14;49.38;100047.03;126023;1095;102958;-72
2021/07/28 08:00:53;;;;;;;0.40;0.00;;;;;;;28.23;51.48;100031.48;127514;1094;113867;-72
2021/07/28 08:03:20;;;;;;;0.40;0.00;;;;;;;28.28;50.32;100038.17;126553;1095;106286;-72
2021/07/28 08:05:48;;;;;;;0.40;0.00;;;;;;;28.28;49.83;100038.17;125895;1096;114247;-72
2021/07/28 08:08:15;;;;;;;0.40;0.00;;;;;;;28.30;49.88;100041.63;126060;1094;102975;-73
2021/07/28 08:10:42;;;;;;;0.40;0.00;;;;;;;28.33;47.96;100043.17;125873;1096;114354;-73
2021/07/28 08:13:09;;;;;;;0.40;0.00;;;;;;;28.27;47.62;100038.34;125997;1096;102891;-73
2021/07/28 08:15:36;;;;;;;0.40;0.00;;;;;;;28.22;47.43;100035.23;125981;1096;103033;-73
2021/07/28 08:18:04;;;;;;;0.40;0.00;;;;;;;28.21;46.90;100033.55;125924;1096;114002;-73
2021/07/28 08:20:31;;;;;;;0.40;0.00;;;;;;;28.22;47.07;100036.11;126011;1095;102919;-73
2021/07/28 08:22:59;;;;;;;0.40;0.00;;;;;;;28.25;46.81;100033.04;125874;1096;114470;-73
2021/07/28 08:25:26;;;;;;;0.40;0.00;;;;;;;28.36;48.16;100029.14;126044;1096;103189;-73
2021/07/28 08:27:53;;;;;;;0.40;0.00;;;;;;;28.51;46.81;100038.45;126078;1096;103007;-77
2021/07/28 08:30:20;;;;;;;0.40;0.00;;;;;;;28.67;47.33;100037.67;125881;1096;114324;-72
2021/07/28 08:32:47;;;;;;;0.40;0.00;;;;;;;28.84;46.70;100037.70;126018;1095;102965;-72
2021/07/28 08:35:14;;;;;;;0.40;0.00;;;;;;;29.05;46.43;100033.63;125857;1096;114340;-72
2021/07/28 08:37:42;;;;;;;0.40;0.00;;;;;;;29.22;45.67;100034.48;125998;1096;103239;-72
2021/07/28 08:40:12;;;;;;;0.40;0.00;;;;;;;29.33;45.59;100039.67;126002;1096;103512;-72
2021/07/28 08:42:41;;;;;;;0.40;0.00;;;;;;;29.44;44.83;100028.33;125835;1096;114337;-72
2021/07/28 08:45:09;;;;;;;0.40;0.00;;;;;;;29.51;44.25;100033.98;125937;1095;103220;-71
2021/07/28 08:47:36;;;;;;;0.40;0.00;;;;;;;29.60;44.75;100024.71;125897;1095;114635;-71
2021/07/28 08:50:08;;;;;;;0.40;0.00;;;;;;;29.67;43.90;100027.62;126027;1096;103112;-72
2021/07/28 08:52:36;;;;;;;0.40;0.00;;;;;;;29.77;43.91;100030.19;125874;1094;114309;-71
2021/07/28 08:55:05;;;;;;;0.40;0.00;;;;;;;29.87;45.60;100024.53;125949;1095;103038;-71
2021/07/28 08:57:34;;;;;;;0.40;0.00;;;;;;;29.99;45.84;100025.86;125994;1095;103015;-71
2021/07/28 09:00:03;;;;;;;0.40;0.00;;;;;;;30.19;44.84;100027.17;126019;1096;114168;-71
2021/07/28 09:02:30;;;;;;;0.40;0.00;;;;;;;30.34;46.36;100015.45;125933;1096;103012;-71
2021/07/28 09:04:57;;;;;;;0.40;0.00;;;;;;;30.48;44.30;100016.59;125850;1095;114296;-71
2021/07/28 09:07:24;;;;;;;0.40;0.00;;;;;;;30.61;42.90;100010.52;126015;1094;103375;-72
2021/07/28 09:09:55;;;;;;;0.40;0.00;;;;;;;30.67;41.90;100018.02;125979;1094;102901;-72
2021/07/28 09:12:36;;;;;;;0.40;0.00;;;;;;;30.69;42.25;100015.97;125892;1094;114016;-71
2021/07/28 09:15:05;;;;;;;0.40;0.00;;;;;;;30.76;42.35;100011.44;125940;1095;103261;-72
2021/07/28 09:17:36;;;;;;;0.40;0.00;;;;;;;30.93;43.07;100012.19;125818;1095;114214;-72
2021/07/28 09:20:05;;;;;;;0.40;0.00;;;;;;;30.89;41.03;100012.75;125897;1095;103055;-73
2021/07/28 09:22:41;;;;;;;0.40;0.00;;;;;;;30.94;41.02;100011.16;126106;1096;114217;-72
2021/07/28 09:25:14;;;;;;;0.40;0.00;;;;;;;31.29;39.35;100005.23;125989;1096;102997;-72
2021/07/28 09:27:44;;;;;;;0.40;0.00;;;;;;;31.92;36.34;100014.08;126316;1094;102904;-72
2021/07/28 09:30:15;;;;;;;0.40;0.00;;;;;;;32.19;36.09;100000.73;125914;1096;113082;-72
2021/07/28 09:33:01;;;;;;;0.40;0.00;;;;;;;33.02;36.18;99997.66;125846;1095;102905;-72
2021/07/28 09:35:43;;;;;;;0.40;0.00;;;;;;;34.04;35.29;99998.24;125889;1095;113952;-73
2021/07/28 09:38:11;;;;;;;0.40;0.00;;;;;;;35.05;32.96;99996.71;125982;1096;102921;-73
2021/07/28 09:40:38;;;;;;;0.40;0.00;;;;;;;35.65;30.63;99993.95;125906;1095;114162;-73
2021/07/28 09:43:05;;;;;;;0.40;0.00;;;;;;;36.01;30.56;99989.00;126017;1096;103866;-73
2021/07/28 09:45:32;;;;;;;0.40;0.00;;;;;;;36.94;31.19;99978.56;125902;1096;102895;-72
2021/07/28 09:48:01;;;;;;;0.40;0.00;;;;;;;37.79;29.90;99991.96;125838;1095;114097;-73
2021/07/28 09:50:29;;;;;;;0.40;0.00;;;;;;;38.51;28.52;99997.97;126017;1095;102881;-73
2021/07/28 09:53:09;;;;;;;0.40;0.00;;;;;;;38.82;27.16;99994.13;125879;1096;114144;-73
2021/07/28 09:55:45;;;;;;;0.40;0.00;;;;;;;39.10;27.82;99996.25;125972;1095;102910;-73
2021/07/28 09:58:13;;;;;;;0.40;0.00;;;;;;;39.35;26.97;99988.80;125951;1095;103217;-73
2021/07/28 10:00:41;;;;;;;0.40;0.00;;;;;;;39.69;25.30;99989.94;125934;1096;113952;-73
2021/07/28 10:03:08;;;;;;;0.40;0.00;;;;;;;40.06;24.87;99981.30;125953;1096;102951;-73
2021/07/28 10:05:37;;;;;;;0.40;0.00;;;;;;;40.65;25.28;99982.23;125876;1094;113988;-73
2021/07/28 10:08:07;;;;;;;0.40;0.00;;;;;;;41.30;24.26;99989.26;125912;1096;103090;-73
2021/07/28 10:10:37;;;;;;;0.40;0.00;;;;;;;41.80;24.38;99983.88;125950;1095;102886;-73
2021/07/28 10:13:04;;;;;;;0.40;0.00;;;;;;;41.99;22.59;99978.84;125775;1095;113856;-73
2021/07/28 10:15:32;;;;;;;0.40;0.00;;;;;;;42.17;22.45;99972.09;125910;1095;103221;-72
2021/07/28 10:18:00;;;;;;;0.40;0.10;;;;;;;42.64;22.26;99977.11;125794;1096;113989;-73
2021/07/28 10:20:27;;;;;;;0.40;0.00;;;;;;;42.92;22.20;99980.78;125951;1095;103100;-73
2021/07/28 10:22:56;;;;;;;0.40;0.00;;;;;;;42.71;21.90;99974.13;125818;1095;113179;-73
2021/07/28 10:25:24;;;;;;;0.40;0.00;;;;;;;42.66;22.56;99979.70;125968;1094;103363;-73
2021/07/28 10:27:52;;;;;;;0.40;0.00;;;;;;;42.86;23.25;99974.29;125914;1096;103085;-74
2021/07/28 10:30:20;;;;;;;0.40;0.00;;;;;;;43.14;21.47;99965.89;125684;1095;114130;-73
2021/07/28 10:32:47;;;;;;;0.40;0.00;;;;;;;43.45;20.03;99966.11;126366;1096;103415;-74
2021/07/28 10:35:29;;;;;;;0.40;0.00;;;;;;;43.63;21.00;99964.83;125904;1095;114670;-74
2021/07/28 10:37:58;;;;;;;0.40;0.00;;;;;;;43.85;21.47;99962.70;126040;1095;102900;-73
2021/07/28 10:40:31;;;;;;;0.40;0.00;;;;;;;44.07;20.91;99968.19;126196;1094;103087;-73
2021/07/28 10:43:01;;;;;;;0.40;0.00;;;;;;;44.24;20.08;99964.30;125819;1096;113900;-74
2021/07/28 10:45:54;;;;;;;0.40;0.00;;;;;;;43.63;19.34;99956.42;126033;1095;103025;-74
2021/07/28 10:48:37;;;;;;;0.40;0.00;;;;;;;43.55;21.27;99955.83;125858;1094;114145;-74
2021/07/28 10:51:04;;;;;;;0.40;0.00;;;;;;;43.45;20.87;99960.50;125990;1094;102895;-74
2021/07/28 10:53:57;;;;;;;0.40;0.00;;;;;;;43.28;21.17;99967.09;125836;1096;113984;-74
2021/07/28 10:56:24;;;;;;;0.40;0.00;;;;;;;43.33;20.06;99955.92;125926;1095;102967;-74
2021/07/28 10:58:51;;;;;;;0.40;0.00;;;;;;;43.39;20.39;99951.22;125844;1096;114118;-74
2021/07/28 11:01:18;;;;;;;0.40;0.00;;;;;;;43.32;20.53;99965.44;126046;1094;104124;-74
2021/07/28 11:03:46;;;;;;;0.40;0.00;;;;;;;43.26;19.76;99958.13;126004;1095;102964;-73
2021/07/28 11:06:16;;;;;;;0.40;0.00;;;;;;;42.14;21.24;99961.43;125880;1094;113980;-73
2021/07/28 11:08:43;;;;;;;0.40;0.00;;;;;;;41.12;21.18;99951.23;126004;1094;103021;-73
2021/07/28 11:11:19;;;;;;;0.40;0.00;;;;;;;40.18;23.08;99956.17;125927;1096;114841;-73
2021/07/28 11:13:47;;;;;;;0.40;0.00;;;;;;;39.46;23.87;99938.66;126043;1095;102881;-73
2021/07/28 11:16:15;;;;;;;0.40;0.00;;;;;;;38.78;24.18;99940.02;126026;1096;102945;-73
2021/07/28 11:18:45;;;;;;;0.40;0.00;;;;;;;38.05;26.13;99950.19;125913;1096;114068;-73